Accueil
METAR-TAF:

METAR-TAF

Aéroports :

Aéroport de Stuttgart

Stuttgart, Allemagne

latitude: 48-41N, longitude: 009-13E, altitude: 396 m

Observation

Le bulletin a été fait il y a 21 minutes, à 01:50 UTC
Vent 5 kt de nord-ouest
Température 1°C
Humidité 86%
Pression 1022 hPa
Visibilité 10 km ou plus
pas de nuages en-dessous de 1500 mètres et pas de cumulonimbus.

METAR: EDDS 170150Z 32005KT CAVOK 01/M01 Q1022

Heure: 04:11 (02:11 UTC)

Prévision

Le bulletin a été fait il y a 3 heures et 11 minutes, à 23:00 UTC
Prévision valable du 17 à 00 UTC au 17 à 24 UTC
Vent 3 kt de direction variable
Visibilité 10 km ou plus
Nuages fragmentés à une hauteur de 4000 ft
Evoluant progressivement
du 17 à 07 UTC au 17 à 09 UTC
Vent 7 kt de nord
Evoluant progressivement
du 17 à 18 UTC au 17 à 21 UTC
Vent 3 kt de direction variable

TAF: EDDS 162300Z 1700/1724 VRB03KT 9999 BKN040 BECMG 1707/1709 01007KT BECMG 1718/1721 VRB03KT

Observations et prévisions météorologiques de plus de 4000 aéroports (messages METAR et TAF).

Les stations disponibles sont représentées par des disques jaunes et rouges sur la carte.

Passer la souris dessus pour voir le nom de la station.

Cliquer dessus pour voir les observations et prévisions météorologiques.

Pour changer de carte: cliquez sur les boutons verts avec une croix noire pour zoomer, sur le bouton vert avec un tiret pour effectuer un zoom arrière, ou sur les flèches vertes pour les cartes adjacentes.


METAR-TAF: